createdAt,value
2022-10-03T00:02:10.679Z,43.80
2022-10-03T00:05:43.462Z,43.30
2022-10-03T00:09:08.656Z,43.10
2022-10-03T00:12:16.107Z,43.50
2022-10-03T00:15:29.224Z,43.20
2022-10-03T00:18:50.996Z,44.20
2022-10-03T00:21:45.386Z,43.00
2022-10-03T00:24:46.068Z,42.70
2022-10-03T00:27:52.285Z,42.50
2022-10-03T00:31:01.862Z,42.10
2022-10-03T00:34:23.653Z,42.60
2022-10-03T00:38:04.561Z,42.00
2022-10-03T00:41:10.403Z,42.50
2022-10-03T00:44:35.501Z,43.50
2022-10-03T00:47:48.195Z,42.80
2022-10-03T00:51:00.542Z,41.90
2022-10-03T00:54:39.446Z,42.30
2022-10-03T00:58:00.881Z,41.90
2022-10-03T01:01:01.482Z,42.30
2022-10-03T01:04:24.831Z,42.80
2022-10-03T01:07:26.343Z,42.90
2022-10-03T01:10:53.331Z,42.10
2022-10-03T01:14:06.128Z,42.40
2022-10-03T01:17:15.301Z,42.00
2022-10-03T01:20:44.884Z,42.70
2022-10-03T01:24:20.661Z,43.20
2022-10-03T01:27:36.297Z,42.70
2022-10-03T01:30:48.870Z,42.90
2022-10-03T01:34:02.890Z,43.40
2022-10-03T01:37:18.676Z,43.20
2022-10-03T01:40:38.803Z,43.00
2022-10-03T01:43:56.058Z,42.60
2022-10-03T01:47:03.422Z,42.60
2022-10-03T01:50:20.971Z,43.00
2022-10-03T01:53:40.355Z,42.80
2022-10-03T01:57:04.960Z,43.20
2022-10-03T02:00:09.860Z,42.90
2022-10-03T02:03:33.122Z,43.20
2022-10-03T02:06:49.675Z,43.10
2022-10-03T02:09:55.897Z,42.50
2022-10-03T02:13:11.487Z,42.50
2022-10-03T02:16:35.015Z,42.50
2022-10-03T02:20:09.872Z,42.90
2022-10-03T02:23:04.351Z,42.40
2022-10-03T02:26:10.689Z,43.00
2022-10-03T02:29:24.016Z,43.10
2022-10-03T02:32:36.471Z,43.40
2022-10-03T02:36:01.330Z,43.60
2022-10-03T02:39:24.199Z,44.20
2022-10-03T02:42:36.590Z,44.60
2022-10-03T02:45:49.276Z,44.60
2022-10-03T02:48:59.417Z,43.80
2022-10-03T02:52:13.196Z,43.90
2022-10-03T02:55:31.771Z,44.30
2022-10-03T02:58:54.073Z,43.80
2022-10-03T03:01:54.582Z,43.30
2022-10-03T03:05:19.841Z,43.50
2022-10-03T03:08:53.464Z,43.70
2022-10-03T03:12:04.964Z,44.50
2022-10-03T03:15:09.669Z,43.70
2022-10-03T03:18:21.892Z,43.30
2022-10-03T03:21:34.435Z,44.20
2022-10-03T03:24:31.589Z,43.80
2022-10-03T03:27:51.368Z,43.90
2022-10-03T03:31:15.643Z,43.70
2022-10-03T03:34:51.982Z,44.00
2022-10-03T03:38:03.085Z,43.80
2022-10-03T03:41:22.980Z,44.50
2022-10-03T03:44:38.831Z,43.90
2022-10-03T03:47:45.359Z,44.60
2022-10-03T03:51:13.383Z,44.20
2022-10-03T03:54:41.489Z,44.20
2022-10-03T03:58:01.043Z,43.50
2022-10-03T04:01:16.857Z,44.00
2022-10-03T04:05:00.933Z,43.50
2022-10-03T04:08:22.429Z,42.80
2022-10-03T04:11:39.015Z,43.20
2022-10-03T04:15:02.135Z,42.90
2022-10-03T04:18:17.545Z,41.80
2022-10-03T04:21:14.598Z,40.80
2022-10-03T04:24:33.267Z,41.50
2022-10-03T04:27:54.883Z,42.00
2022-10-03T04:31:13.479Z,41.90
2022-10-03T04:34:15.040Z,40.40
2022-10-03T04:37:30.432Z,40.40
2022-10-03T04:40:59.691Z,40.70
2022-10-03T04:44:32.906Z,40.20
2022-10-03T04:47:36.504Z,40.90
2022-10-03T04:50:46.683Z,39.50
2022-10-03T04:54:16.662Z,39.60
2022-10-03T04:57:32.377Z,39.50
2022-10-03T05:00:53.926Z,39.90
2022-10-03T05:04:22.001Z,38.40
2022-10-03T05:08:03.721Z,38.80
2022-10-03T05:11:13.553Z,37.90
2022-10-03T05:14:18.983Z,38.70
2022-10-03T05:17:25.437Z,39.40
2022-10-03T05:20:36.386Z,39.90
2022-10-03T05:23:49.522Z,39.80
2022-10-03T05:27:15.442Z,40.00
2022-10-03T05:30:36.644Z,39.80
2022-10-03T05:34:06.749Z,38.90
2022-10-03T05:37:26.820Z,38.80
2022-10-03T05:40:28.410Z,39.60
2022-10-03T05:44:06.926Z,39.70
2022-10-03T05:47:04.016Z,40.00
2022-10-03T05:50:15.295Z,40.10
2022-10-03T05:53:31.165Z,39.90
2022-10-03T05:56:49.865Z,39.90
2022-10-03T06:00:10.564Z,40.00
2022-10-03T06:03:46.991Z,40.40
2022-10-03T06:06:54.900Z,40.60
2022-10-03T06:10:23.145Z,40.00
2022-10-03T06:13:32.668Z,40.00
2022-10-03T06:16:34.839Z,39.40
2022-10-03T06:19:51.683Z,39.90
2022-10-03T06:23:22.794Z,39.80
2022-10-03T06:26:41.646Z,40.30
2022-10-03T06:29:44.945Z,40.00
2022-10-03T06:33:06.047Z,39.50
2022-10-03T06:36:37.371Z,40.00
2022-10-03T06:39:50.110Z,40.20
2022-10-03T06:43:11.214Z,40.00
2022-10-03T06:46:24.026Z,40.10
2022-10-03T06:49:24.708Z,40.70
2022-10-03T06:52:37.424Z,40.70
2022-10-03T06:55:34.847Z,40.80
2022-10-03T06:58:29.262Z,41.00
2022-10-03T07:01:38.693Z,40.70
2022-10-03T07:04:57.587Z,41.30
2022-10-03T07:08:16.363Z,41.30
2022-10-03T07:11:36.195Z,41.30
2022-10-03T07:14:49.434Z,40.20
2022-10-03T07:18:02.421Z,40.90
2022-10-03T07:21:16.958Z,40.60
2022-10-03T07:24:20.791Z,40.30
2022-10-03T07:27:42.082Z,40.00
2022-10-03T07:30:57.816Z,40.60
2022-10-03T07:34:29.194Z,40.90
2022-10-03T07:37:44.531Z,40.50
2022-10-03T07:40:50.789Z,40.50
2022-10-03T07:44:06.783Z,40.90
2022-10-03T07:47:20.079Z,40.60
2022-10-03T07:50:28.469Z,40.50
2022-10-03T07:53:41.250Z,40.90
2022-10-03T07:56:51.959Z,40.90
2022-10-03T08:00:04.741Z,40.90
2022-10-03T08:03:05.367Z,41.20
2022-10-03T08:06:13.102Z,41.80
2022-10-03T08:09:19.444Z,41.80
2022-10-03T08:12:39.734Z,42.30
2022-10-03T08:16:22.308Z,42.60
2022-10-03T08:19:43.834Z,42.50
2022-10-03T08:22:56.657Z,42.80
2022-10-03T08:26:08.019Z,42.90
2022-10-03T08:29:11.546Z,43.10
2022-10-03T08:32:24.750Z,43.60
2022-10-03T08:35:43.430Z,43.90
2022-10-03T08:38:56.148Z,44.60
2022-10-03T08:42:09.357Z,44.10
2022-10-03T08:45:24.946Z,44.20
2022-10-03T08:48:38.073Z,44.50
2022-10-03T08:51:45.017Z,44.80
2022-10-03T08:54:48.392Z,45.10
2022-10-03T08:57:58.108Z,45.40
2022-10-03T09:01:23.563Z,45.60
2022-10-03T09:04:51.380Z,45.70
2022-10-03T09:08:08.863Z,46.10
2022-10-03T09:11:46.269Z,46.30
2022-10-03T09:15:08.219Z,46.70
2022-10-03T09:18:15.670Z,47.10
2022-10-03T09:21:36.288Z,47.30
2022-10-03T09:25:13.021Z,47.60
2022-10-03T09:28:07.500Z,47.60
2022-10-03T09:31:18.984Z,47.70
2022-10-03T09:34:40.918Z,47.80
2022-10-03T09:37:38.200Z,47.80
2022-10-03T09:40:53.421Z,47.90
2022-10-03T09:44:07.698Z,47.90
2022-10-03T09:47:29.807Z,48.10
2022-10-03T09:51:01.812Z,48.20
2022-10-03T09:54:31.840Z,48.40
2022-10-03T09:58:13.919Z,48.40
2022-10-03T10:01:34.171Z,48.50
2022-10-03T10:04:56.616Z,48.50
2022-10-03T10:08:15.426Z,48.40
2022-10-03T10:11:35.393Z,48.20
2022-10-03T10:15:03.790Z,48.00
2022-10-03T10:18:34.807Z,48.00
2022-10-03T10:21:47.487Z,48.20
2022-10-03T10:25:03.414Z,47.70
2022-10-03T10:28:26.752Z,47.10
2022-10-03T10:31:53.663Z,46.90
2022-10-03T10:35:06.333Z,46.80
2022-10-03T10:38:27.925Z,46.50
2022-10-03T10:41:48.598Z,46.50
2022-10-03T10:45:04.294Z,46.50
2022-10-03T10:48:43.819Z,46.10
2022-10-03T10:52:08.517Z,46.40
2022-10-03T10:55:49.886Z,46.00
2022-10-03T10:59:11.762Z,45.90
2022-10-03T11:02:08.911Z,45.00
2022-10-03T11:05:48.198Z,45.30
2022-10-03T11:09:07.031Z,44.60
2022-10-03T11:12:22.853Z,44.10
2022-10-03T11:15:41.545Z,44.00
2022-10-03T11:18:54.629Z,44.30
2022-10-03T11:22:25.579Z,44.40
2022-10-03T11:25:38.590Z,44.00
2022-10-03T11:28:51.212Z,44.50
2022-10-03T11:32:10.908Z,44.20
2022-10-03T11:35:05.393Z,44.80
2022-10-03T11:38:10.912Z,44.30
2022-10-03T11:41:20.448Z,44.50
2022-10-03T11:44:28.258Z,44.50
2022-10-03T11:47:40.424Z,44.20
2022-10-03T11:50:58.870Z,44.20
2022-10-03T11:54:30.027Z,44.30
2022-10-03T11:57:37.991Z,44.10
2022-10-03T12:00:37.339Z,44.20
2022-10-03T12:03:37.575Z,44.00
2022-10-03T12:07:05.573Z,43.80
2022-10-03T12:10:06.123Z,43.60
2022-10-03T12:13:06.260Z,43.30
2022-10-03T12:16:03.531Z,43.60
2022-10-03T12:19:03.247Z,43.40
2022-10-03T12:22:20.245Z,43.40
2022-10-03T12:25:27.197Z,43.70
2022-10-03T12:28:27.505Z,43.40
2022-10-03T12:31:26.032Z,43.80
2022-10-03T12:34:44.017Z,43.40
2022-10-03T12:38:27.831Z,43.70
2022-10-03T12:41:46.932Z,43.50
2022-10-03T12:44:44.547Z,43.60
2022-10-03T12:47:57.298Z,43.00
2022-10-03T12:51:17.779Z,43.20
2022-10-03T12:54:23.559Z,43.20
2022-10-03T12:57:39.363Z,43.00
2022-10-03T13:00:46.336Z,43.20
2022-10-03T13:04:02.090Z,43.20
2022-10-03T13:07:22.980Z,43.40
2022-10-03T13:10:36.767Z,43.40
2022-10-03T13:13:58.510Z,43.80
2022-10-03T13:17:11.231Z,44.00
2022-10-03T13:20:19.132Z,43.90
2022-10-03T13:23:27.404Z,44.40
2022-10-03T13:26:28.991Z,44.30
2022-10-03T13:29:35.317Z,44.20
2022-10-03T13:32:39.696Z,44.40
2022-10-03T13:36:00.120Z,44.40
2022-10-03T13:39:14.021Z,44.40
2022-10-03T13:42:11.629Z,44.20
2022-10-03T13:45:27.556Z,44.30
2022-10-03T13:48:30.505Z,44.30
2022-10-03T13:51:42.748Z,44.80
2022-10-03T13:55:02.497Z,44.30
2022-10-03T13:58:24.693Z,44.50
2022-10-03T14:01:53.319Z,44.70
2022-10-03T14:05:22.534Z,44.80
2022-10-03T14:08:55.256Z,45.00
2022-10-03T14:11:49.536Z,45.60
2022-10-03T14:14:55.073Z,46.00
2022-10-03T14:18:20.589Z,46.20
2022-10-03T14:22:02.588Z,46.70
2022-10-03T14:25:14.866Z,47.20
2022-10-03T14:28:35.446Z,47.90
2022-10-03T14:31:37.802Z,49.60
2022-10-03T14:34:38.296Z,51.20
2022-10-03T14:37:44.870Z,52.50
2022-10-03T14:40:52.192Z,53.40
2022-10-03T14:43:51.827Z,53.70
2022-10-03T14:47:05.198Z,54.20
2022-10-03T14:50:01.738Z,55.50
2022-10-03T14:53:21.525Z,55.20
2022-10-03T14:56:20.545Z,55.60
2022-10-03T14:59:25.820Z,56.00
2022-10-03T15:02:33.410Z,56.60
2022-10-03T15:05:39.608Z,56.20
2022-10-03T15:08:55.280Z,57.10
2022-10-03T15:12:11.006Z,57.10
2022-10-03T15:15:22.416Z,57.40
2022-10-03T15:18:25.037Z,57.50
2022-10-03T15:21:20.925Z,58.60
2022-10-03T15:24:25.615Z,58.50
2022-10-03T15:27:24.631Z,58.70
2022-10-03T15:30:32.046Z,59.10
2022-10-03T15:33:26.921Z,59.40
2022-10-03T15:36:31.126Z,59.30
2022-10-03T15:39:37.862Z,60.30
2022-10-03T15:42:41.383Z,60.30
2022-10-03T15:45:38.556Z,60.10
2022-10-03T15:48:34.146Z,60.80
2022-10-03T15:51:31.397Z,61.20
2022-10-03T15:54:28.645Z,61.10
2022-10-03T15:57:41.422Z,61.40
2022-10-03T16:00:39.010Z,61.90
2022-10-03T16:03:40.275Z,62.10
2022-10-03T16:06:51.154Z,62.60
2022-10-03T16:10:11.258Z,63.70
2022-10-03T16:13:24.035Z,63.90
2022-10-03T16:16:41.476Z,64.10
2022-10-03T16:19:47.230Z,64.00
2022-10-03T16:22:44.788Z,64.70
2022-10-03T16:26:11.136Z,65.70
2022-10-03T16:29:20.996Z,66.00
2022-10-03T16:32:26.402Z,66.20
2022-10-03T16:35:58.720Z,66.80
2022-10-03T16:39:02.316Z,67.10
2022-10-03T16:41:57.465Z,68.10
2022-10-03T16:44:56.601Z,68.30
2022-10-03T16:48:12.012Z,69.30
2022-10-03T16:51:09.277Z,70.50
2022-10-03T16:54:04.932Z,71.20
2022-10-03T16:57:02.508Z,71.30
2022-10-03T16:59:57.738Z,72.20
2022-10-03T17:02:52.201Z,73.50
2022-10-03T17:05:49.446Z,74.70
2022-10-03T17:08:53.449Z,75.90
2022-10-03T17:11:53.261Z,76.60
2022-10-03T17:14:48.375Z,77.20
2022-10-03T17:18:08.116Z,77.90
2022-10-03T17:21:28.116Z,78.70
2022-10-03T17:24:55.995Z,78.20
2022-10-03T17:27:52.113Z,79.40
2022-10-03T17:30:49.262Z,79.40
2022-10-03T17:33:53.151Z,79.60
2022-10-03T17:37:10.409Z,80.70
2022-10-03T17:40:45.364Z,81.00
2022-10-03T17:43:47.771Z,81.90
2022-10-03T17:46:46.952Z,83.00
2022-10-03T17:50:05.515Z,84.00
2022-10-03T17:53:01.440Z,84.60
2022-10-03T17:56:09.399Z,85.20
2022-10-03T17:59:32.255Z,86.30
2022-10-03T18:02:40.755Z,88.80
2022-10-03T18:05:47.140Z,90.20
2022-10-03T18:08:43.134Z,90.70
2022-10-03T18:11:41.953Z,91.10
2022-10-03T18:15:03.438Z,91.20
2022-10-03T18:18:26.889Z,92.10
2022-10-03T18:21:49.448Z,92.20
2022-10-03T18:26:08.346Z,92.60
2022-10-03T18:29:16.449Z,93.00
2022-10-03T18:32:14.053Z,93.50
2022-10-03T18:35:14.064Z,93.70
2022-10-03T18:38:26.208Z,94.40
2022-10-03T18:41:20.667Z,95.00
2022-10-03T18:44:21.924Z,95.20
2022-10-03T18:47:37.101Z,95.80
2022-10-03T18:50:58.262Z,95.90
2022-10-03T18:54:22.681Z,96.30
2022-10-03T18:57:29.003Z,97.10
2022-10-03T19:00:32.578Z,97.50
2022-10-03T19:03:43.381Z,97.70
2022-10-03T19:06:42.886Z,98.00
2022-10-03T19:09:45.873Z,98.00
2022-10-03T19:12:49.125Z,97.80
2022-10-03T19:16:18.132Z,97.70
2022-10-03T19:19:30.770Z,98.20
2022-10-03T19:22:56.172Z,98.80
2022-10-03T19:25:58.068Z,99.20
2022-10-03T19:29:00.192Z,99.80
2022-10-03T19:32:01.444Z,99.90
2022-10-03T19:35:00.331Z,99.90
2022-10-03T19:38:16.308Z,99.90
2022-10-03T19:41:41.548Z,99.90
2022-10-03T19:44:36.081Z,99.90
2022-10-03T19:47:38.006Z,99.90
2022-10-03T19:50:37.294Z,99.90
2022-10-03T19:53:33.404Z,99.90
2022-10-03T19:56:32.553Z,99.90
2022-10-03T19:59:45.712Z,99.90
2022-10-03T20:02:40.353Z,99.90
2022-10-03T20:05:45.487Z,99.90
2022-10-03T20:08:58.124Z,99.90
2022-10-03T20:12:03.184Z,99.90
2022-10-03T20:15:03.748Z,99.90
2022-10-03T20:18:04.251Z,99.90
2022-10-03T20:21:00.560Z,99.90
2022-10-03T20:23:56.542Z,99.90
2022-10-03T20:27:19.689Z,99.90
2022-10-03T20:30:32.331Z,99.90
2022-10-03T20:33:37.361Z,99.90
2022-10-03T20:36:35.553Z,99.90
2022-10-03T20:39:35.320Z,99.90
2022-10-03T20:42:32.935Z,99.90
2022-10-03T20:45:29.934Z,99.90
2022-10-03T20:48:30.395Z,99.90
2022-10-03T20:51:25.588Z,99.90
2022-10-03T20:54:22.685Z,99.90
2022-10-03T20:57:26.020Z,99.90
2022-10-03T21:00:24.371Z,99.90
2022-10-03T21:03:38.016Z,99.90
2022-10-03T21:06:52.905Z,99.90
2022-10-03T21:09:58.012Z,99.90
2022-10-03T21:13:20.761Z,99.90
2022-10-03T21:16:37.217Z,99.90
2022-10-03T21:19:34.512Z,99.90
2022-10-03T21:22:29.429Z,99.90
2022-10-03T21:25:30.912Z,99.90
2022-10-03T21:28:36.883Z,99.90
2022-10-03T21:31:52.859Z,99.90
2022-10-03T21:34:59.928Z,99.90
2022-10-03T21:38:04.659Z,99.90
2022-10-03T21:41:13.792Z,99.90
2022-10-03T21:44:32.376Z,99.90
2022-10-03T21:47:35.068Z,99.90
2022-10-03T21:50:41.671Z,99.90
2022-10-03T21:53:42.099Z,99.90
2022-10-03T21:57:13.400Z,99.90
2022-10-03T22:00:10.943Z,99.90
2022-10-03T22:03:23.993Z,99.90
2022-10-03T22:06:35.826Z,99.90
2022-10-03T22:09:30.544Z,99.90
2022-10-03T22:12:30.168Z,99.90
2022-10-03T22:15:55.141Z,99.90
2022-10-03T22:19:07.500Z,99.90
2022-10-03T22:22:14.487Z,99.90
2022-10-03T22:25:16.120Z,99.90
2022-10-03T22:28:28.702Z,99.90
2022-10-03T22:31:38.402Z,99.90
2022-10-03T22:35:00.467Z,99.90
2022-10-03T22:37:56.151Z,99.90
2022-10-03T22:40:52.518Z,99.90
2022-10-03T22:43:47.729Z,99.90
2022-10-03T22:46:45.963Z,99.90
2022-10-03T22:49:48.628Z,99.90
2022-10-03T22:52:49.408Z,99.90
2022-10-03T22:55:48.147Z,99.90
2022-10-03T22:58:42.576Z,99.90
2022-10-03T23:01:37.821Z,99.90
2022-10-03T23:04:56.468Z,99.90
2022-10-03T23:08:13.014Z,99.90
2022-10-03T23:11:23.095Z,99.90
2022-10-03T23:14:24.510Z,99.90
2022-10-03T23:17:43.223Z,99.90
2022-10-03T23:21:16.882Z,99.90
2022-10-03T23:24:37.750Z,99.90
2022-10-03T23:27:40.248Z,99.90
2022-10-03T23:30:37.683Z,99.90
2022-10-03T23:33:35.126Z,99.90
2022-10-03T23:36:32.681Z,99.90
2022-10-03T23:39:37.547Z,99.90
2022-10-03T23:42:35.569Z,99.90
2022-10-03T23:45:30.843Z,99.90
2022-10-03T23:48:27.550Z,99.90
2022-10-03T23:51:37.687Z,99.90
2022-10-03T23:54:33.332Z,99.90
2022-10-03T23:57:38.898Z,99.90
